Terminal Aerodrome Forecast
Issued by NWS North Platte, NE

Home | Current Version | Previous Version | Graphics & Text | Print | Product List | Glossary On
Versions: 1 2 3 4 5 6 7 8 9 10 11 12 13 14 15 16 17 18
000
FTUS43 KLBF 150500
TAFVTN
TAF
KVTN 150520Z 1506/1606 VRB06KT P6SM SKC
     FM151400 18012KT P6SM SCT200
     FM151900 21017G26KT P6SM BKN200
     FM160000 21014KT P6SM BKN200=

USA.gov is the U.S. government's official web portal to all federal, state and local government web resources and services.